Terminal Aerodrome Forecast
Issued by NWS Charleston, WV

Current Version | Previous Version | Graphics & Text | Print | Product List | Glossary On
Versions: 1 2 3 4 5 6 7 8 9 10 11 12 13 14 15 16 17 18 19 20 21 22 23 24
545
FTUS41 KRLX 221129
TAFPKB
TAF
KPKB 221129Z 2212/2312 00000KT 1/4SM FG VV001
     FM221300 04005KT P6SM SKC
     FM230800 00000KT 3SM BR SCT001
     FM230900 00000KT 1/2SM FG VV001=

USA.gov is the U.S. government's official web portal to all federal, state and local government web resources and services.